createdAt,value
2018-10-01T00:01:00.938Z,55.04
2018-10-01T00:03:31.233Z,55.19
2018-10-01T00:06:00.933Z,55.18
2018-10-01T00:08:30.695Z,55.36
2018-10-01T00:11:00.487Z,55.40
2018-10-01T00:13:30.172Z,55.44
2018-10-01T00:15:59.644Z,55.17
2018-10-01T00:18:29.362Z,55.12
2018-10-01T00:21:03.796Z,55.36
2018-10-01T00:23:33.594Z,55.48
2018-10-01T00:26:03.271Z,55.68
2018-10-01T00:28:32.895Z,55.90
2018-10-01T00:31:02.830Z,55.63
2018-10-01T00:33:32.598Z,55.68
2018-10-01T00:36:02.374Z,55.99
2018-10-01T00:38:32.088Z,55.55
2018-10-01T00:41:01.921Z,56.39
2018-10-01T00:43:32.225Z,56.12
2018-10-01T00:46:02.105Z,55.87
2018-10-01T00:48:32.353Z,56.20
2018-10-01T00:51:02.026Z,56.25
2018-10-01T00:53:31.659Z,56.07
2018-10-01T00:56:02.350Z,55.81
2018-10-01T00:58:32.011Z,56.17
2018-10-01T01:01:01.809Z,56.32
2018-10-01T01:03:31.480Z,56.50
2018-10-01T01:06:01.456Z,56.29
2018-10-01T01:08:31.207Z,56.24
2018-10-01T01:11:00.966Z,56.28
2018-10-01T01:13:31.531Z,56.54
2018-10-01T01:16:01.296Z,56.33
2018-10-01T01:18:31.229Z,56.35
2018-10-01T01:21:00.990Z,56.94
2018-10-01T01:23:30.804Z,57.31
2018-10-01T01:26:00.421Z,57.19
2018-10-01T01:28:30.126Z,57.25
2018-10-01T01:30:59.668Z,57.35
2018-10-01T01:33:29.357Z,57.83
2018-10-01T01:35:59.115Z,57.54
2018-10-01T01:38:28.855Z,57.77
2018-10-01T01:40:58.452Z,57.53
2018-10-01T01:43:28.301Z,57.11
2018-10-01T01:45:58.085Z,57.53
2018-10-01T01:48:27.732Z,56.94
2018-10-01T01:50:57.512Z,57.82
2018-10-01T01:53:27.336Z,57.56
2018-10-01T01:55:56.796Z,57.80
2018-10-01T01:58:26.351Z,57.83
2018-10-01T02:00:56.008Z,57.53
2018-10-01T02:03:25.867Z,57.67
2018-10-01T02:05:55.585Z,58.00
2018-10-01T02:08:25.356Z,57.97
2018-10-01T02:10:55.080Z,58.28
2018-10-01T02:13:24.702Z,57.45
2018-10-01T02:15:54.385Z,57.86
2018-10-01T02:18:24.555Z,57.44
2018-10-01T02:20:54.148Z,57.64
2018-10-01T02:23:23.941Z,57.59
2018-10-01T02:25:53.664Z,57.96
2018-10-01T02:28:23.778Z,57.50
2018-10-01T02:30:53.487Z,57.93
2018-10-01T02:33:23.272Z,57.77
2018-10-01T02:35:52.891Z,58.17
2018-10-01T02:38:22.625Z,58.04
2018-10-01T02:40:52.532Z,58.05
2018-10-01T02:43:22.453Z,58.18
2018-10-01T02:45:52.223Z,58.23
2018-10-01T02:48:21.975Z,58.63
2018-10-01T02:50:51.608Z,58.43
2018-10-01T02:53:26.306Z,59.09
2018-10-01T02:55:55.851Z,58.51
2018-10-01T02:58:25.607Z,59.19
2018-10-01T03:00:55.087Z,59.12
2018-10-01T03:03:24.695Z,59.51
2018-10-01T03:05:55.109Z,59.43
2018-10-01T03:08:24.741Z,59.40
2018-10-01T03:10:54.622Z,59.67
2018-10-01T03:13:25.184Z,59.74
2018-10-01T03:15:55.748Z,59.40
2018-10-01T03:18:25.633Z,59.66
2018-10-01T03:20:55.302Z,59.90
2018-10-01T03:23:24.941Z,60.54
2018-10-01T03:25:54.600Z,60.73
2018-10-01T03:28:24.259Z,60.65
2018-10-01T03:30:53.864Z,60.63
2018-10-01T03:33:23.523Z,61.16
2018-10-01T03:35:53.234Z,60.75
2018-10-01T03:38:23.008Z,60.56
2018-10-01T03:40:52.475Z,60.48
2018-10-01T03:43:22.652Z,61.09
2018-10-01T03:45:53.496Z,61.63
2018-10-01T03:48:23.376Z,62.21
2018-10-01T03:50:53.100Z,62.59
2018-10-01T03:53:23.395Z,63.34
2018-10-01T03:55:52.926Z,63.84
2018-10-01T03:58:22.738Z,64.50
2018-10-01T04:00:52.386Z,64.84
2018-10-01T04:03:22.154Z,64.96
2018-10-01T04:05:51.888Z,66.06
2018-10-01T04:08:21.546Z,65.76
2018-10-01T04:10:52.279Z,66.27
2018-10-01T04:13:22.061Z,66.34
2018-10-01T04:15:51.799Z,66.15
2018-10-01T04:18:21.502Z,65.42
2018-10-01T04:20:51.228Z,65.30
2018-10-01T04:23:20.927Z,65.47
2018-10-01T04:25:50.535Z,65.46
2018-10-01T04:28:20.132Z,65.64
2018-10-01T04:30:50.017Z,65.64
2018-10-01T04:33:19.748Z,66.56
2018-10-01T04:35:49.329Z,66.84
2018-10-01T04:38:18.951Z,66.78
2018-10-01T04:40:48.779Z,66.76
2018-10-01T04:43:18.505Z,66.98
2018-10-01T04:45:48.189Z,67.22
2018-10-01T04:48:17.840Z,67.28
2018-10-01T04:50:47.601Z,67.41
2018-10-01T04:53:17.207Z,68.21
2018-10-01T04:55:46.811Z,68.89
2018-10-01T04:58:16.724Z,69.99
2018-10-01T05:00:46.477Z,70.28
2018-10-01T05:03:16.399Z,71.31
2018-10-01T05:05:45.946Z,71.12
2018-10-01T05:08:15.896Z,72.14
2018-10-01T05:10:45.906Z,71.49
2018-10-01T05:13:15.580Z,72.28
2018-10-01T05:15:45.285Z,71.95
2018-10-01T05:18:15.035Z,70.57
2018-10-01T05:20:44.607Z,70.93
2018-10-01T05:23:14.425Z,70.25
2018-10-01T05:25:44.162Z,71.30
2018-10-01T05:28:13.890Z,69.59
2018-10-01T05:30:43.484Z,68.91
2018-10-01T05:33:13.294Z,68.51
2018-10-01T05:35:43.159Z,68.03
2018-10-01T05:38:12.912Z,65.96
2018-10-01T05:40:42.859Z,65.30
2018-10-01T05:43:12.948Z,63.48
2018-10-01T05:45:42.620Z,62.47
2018-10-01T05:48:12.427Z,62.85
2018-10-01T05:50:42.185Z,62.28
2018-10-01T05:53:12.223Z,61.82
2018-10-01T05:55:41.923Z,61.49
2018-10-01T05:58:11.475Z,58.92
2018-10-01T06:00:41.245Z,56.80
2018-10-01T06:03:10.998Z,57.40
2018-10-01T06:05:40.864Z,58.22
2018-10-01T06:08:10.688Z,58.22
2018-10-01T06:10:40.956Z,57.80
2018-10-01T06:13:10.608Z,58.28
2018-10-01T06:15:41.250Z,58.66
2018-10-01T06:18:11.034Z,57.88
2018-10-01T06:20:40.996Z,57.79
2018-10-01T06:23:10.791Z,57.34
2018-10-01T06:25:40.735Z,59.06
2018-10-01T06:28:10.662Z,57.87
2018-10-01T06:30:40.521Z,57.86
2018-10-01T06:33:11.215Z,58.29
2018-10-01T06:35:40.933Z,58.58
2018-10-01T06:38:10.835Z,58.52
2018-10-01T06:40:40.555Z,55.39
2018-10-01T06:43:10.218Z,50.40
2018-10-01T06:45:40.084Z,45.97
2018-10-01T06:48:09.895Z,42.99
2018-10-01T06:50:39.471Z,41.93
2018-10-01T06:53:09.696Z,40.57
2018-10-01T06:55:39.195Z,39.07
2018-10-01T06:58:09.006Z,39.02
2018-10-01T07:00:40.704Z,38.38
2018-10-01T07:03:13.076Z,38.09
2018-10-01T07:05:43.229Z,40.83
2018-10-01T07:08:12.998Z,41.60
2018-10-01T07:10:42.612Z,41.06
2018-10-01T07:13:12.995Z,40.94
2018-10-01T07:15:42.908Z,39.76
2018-10-01T07:18:13.008Z,37.08
2018-10-01T07:20:42.957Z,35.61
2018-10-01T07:23:12.546Z,35.73
2018-10-01T07:25:42.393Z,36.75
2018-10-01T07:28:12.117Z,36.29
2018-10-01T07:30:41.931Z,36.69
2018-10-01T07:33:12.277Z,34.96
2018-10-01T07:35:41.983Z,34.64
2018-10-01T07:38:11.658Z,34.40
2018-10-01T07:40:41.397Z,35.25
2018-10-01T07:43:11.160Z,35.12
2018-10-01T07:45:42.694Z,34.40
2018-10-01T07:48:12.437Z,33.80
2018-10-01T07:50:42.064Z,33.90
2018-10-01T07:53:11.858Z,34.12
2018-10-01T07:55:41.541Z,33.48
2018-10-01T07:58:11.365Z,34.47
2018-10-01T08:00:41.177Z,36.70
2018-10-01T08:03:11.072Z,34.23
2018-10-01T08:05:40.916Z,33.25
2018-10-01T08:08:10.842Z,34.61
2018-10-01T08:10:40.665Z,33.70
2018-10-01T08:13:10.414Z,31.67
2018-10-01T08:15:40.314Z,31.40
2018-10-01T08:18:09.824Z,31.91
2018-10-01T08:20:40.522Z,33.50
2018-10-01T08:23:10.601Z,34.93
2018-10-01T08:25:40.298Z,34.20
2018-10-01T08:28:10.223Z,34.78
2018-10-01T08:30:39.959Z,36.13
2018-10-01T08:33:09.533Z,35.13
2018-10-01T08:35:39.285Z,34.34
2018-10-01T08:38:09.030Z,31.68
2018-10-01T08:40:38.824Z,30.13
2018-10-01T08:43:08.829Z,31.18
2018-10-01T08:45:38.689Z,30.41
2018-10-01T08:48:08.912Z,30.01
2018-10-01T08:50:44.592Z,29.63
2018-10-01T08:53:22.530Z,29.54
2018-10-01T08:55:52.261Z,29.84
2018-10-01T08:58:21.982Z,29.71
2018-10-01T09:00:51.729Z,29.56
2018-10-01T09:03:21.518Z,29.19
2018-10-01T09:05:51.365Z,28.13
2018-10-01T09:08:21.792Z,26.68
2018-10-01T09:10:51.490Z,27.33
2018-10-01T09:13:21.278Z,29.07
2018-10-01T09:15:51.127Z,28.69
2018-10-01T09:18:20.813Z,27.12
2018-10-01T09:20:50.589Z,28.23
2018-10-01T09:23:20.236Z,29.20
2018-10-01T09:25:53.909Z,27.60
2018-10-01T09:28:26.210Z,27.58
2018-10-01T09:30:57.073Z,26.27
2018-10-01T09:33:35.173Z,26.10
2018-10-01T09:36:05.299Z,27.27
2018-10-01T09:38:35.035Z,27.42
2018-10-01T09:41:04.785Z,27.66
2018-10-01T09:43:34.573Z,27.37
2018-10-01T09:46:04.311Z,25.20
2018-10-01T09:48:33.965Z,25.78
2018-10-01T09:51:03.912Z,25.93
2018-10-01T09:53:34.001Z,26.62
2018-10-01T09:56:03.842Z,25.52
2018-10-01T09:58:33.578Z,24.82
2018-10-01T10:01:08.172Z,25.28
2018-10-01T10:03:37.821Z,25.24
2018-10-01T10:06:09.684Z,26.90
2018-10-01T10:08:39.952Z,26.74
2018-10-01T10:11:09.708Z,26.77
2018-10-01T10:13:39.665Z,26.97
2018-10-01T10:16:09.602Z,25.91
2018-10-01T10:18:39.441Z,25.36
2018-10-01T10:21:09.234Z,24.91
2018-10-01T10:23:39.154Z,25.56
2018-10-01T10:26:08.758Z,24.49
2018-10-01T10:28:41.510Z,25.31
2018-10-01T10:31:11.229Z,24.16
2018-10-01T10:33:40.960Z,24.98
2018-10-01T10:36:10.957Z,25.26
2018-10-01T10:38:41.486Z,24.28
2018-10-01T10:41:11.204Z,23.46
2018-10-01T10:43:41.127Z,25.46
2018-10-01T10:46:11.147Z,26.52
2018-10-01T10:48:40.898Z,25.96
2018-10-01T10:51:10.513Z,25.61
2018-10-01T10:53:40.268Z,24.98
2018-10-01T10:56:10.029Z,24.18
2018-10-01T10:58:39.813Z,25.43
2018-10-01T11:01:09.697Z,24.59
2018-10-01T11:03:39.481Z,24.39
2018-10-01T11:06:09.273Z,24.25
2018-10-01T11:08:39.050Z,25.15
2018-10-01T11:11:09.098Z,24.25
2018-10-01T11:13:38.838Z,24.83
2018-10-01T11:16:08.674Z,26.93
2018-10-01T11:18:38.529Z,27.60
2018-10-01T11:21:08.831Z,25.52
2018-10-01T11:23:38.799Z,25.66
2018-10-01T11:26:08.673Z,25.14
2018-10-01T11:28:38.493Z,26.43
2018-10-01T11:31:08.297Z,27.27
2018-10-01T11:33:38.970Z,25.91
2018-10-01T11:36:08.617Z,26.22
2018-10-01T11:38:38.298Z,26.95
2018-10-01T11:41:08.046Z,24.68
2018-10-01T11:43:37.802Z,25.37
2018-10-01T11:46:07.333Z,25.11
2018-10-01T11:48:37.042Z,25.20
2018-10-01T11:51:06.958Z,25.91
2018-10-01T11:53:36.820Z,25.51
2018-10-01T11:56:06.595Z,26.79
2018-10-01T11:58:36.384Z,27.87
2018-10-01T12:01:06.123Z,27.43
2018-10-01T12:03:35.893Z,29.42
2018-10-01T12:06:05.530Z,30.93
2018-10-01T12:08:35.512Z,32.08
2018-10-01T12:11:05.200Z,32.85
2018-10-01T12:13:35.098Z,33.31
2018-10-01T12:16:04.973Z,33.06
2018-10-01T12:18:34.548Z,33.25
2018-10-01T12:21:04.461Z,32.77
2018-10-01T12:23:34.211Z,33.50
2018-10-01T12:26:04.091Z,33.67
2018-10-01T12:28:33.912Z,33.88
2018-10-01T12:31:03.526Z,34.11
2018-10-01T12:33:33.459Z,34.19
2018-10-01T12:36:03.305Z,34.10
2018-10-01T12:38:33.602Z,34.17
2018-10-01T12:41:05.845Z,34.25
2018-10-01T12:43:35.537Z,33.92
2018-10-01T12:46:06.184Z,33.99
2018-10-01T12:48:35.895Z,34.08
2018-10-01T12:51:06.051Z,34.56
2018-10-01T12:53:37.634Z,34.42
2018-10-01T12:56:07.519Z,34.63
2018-10-01T12:58:37.034Z,34.67
2018-10-01T13:01:07.793Z,34.40
2018-10-01T13:03:37.701Z,35.51
2018-10-01T13:06:07.525Z,34.50
2018-10-01T13:08:37.116Z,34.64
2018-10-01T13:11:37.737Z,34.28
2018-10-01T13:14:07.492Z,33.57
2018-10-01T13:16:37.614Z,33.63
2018-10-01T13:19:07.646Z,33.83
2018-10-01T13:21:37.422Z,33.66
2018-10-01T13:24:07.789Z,34.40
2018-10-01T13:26:37.495Z,34.52
2018-10-01T13:29:07.260Z,34.15
2018-10-01T13:31:36.788Z,33.91
2018-10-01T13:34:06.543Z,34.56
2018-10-01T13:36:36.230Z,34.70
2018-10-01T13:39:07.503Z,34.38
2018-10-01T13:41:37.055Z,34.94
2018-10-01T13:44:06.779Z,34.55
2018-10-01T13:46:36.558Z,34.75
2018-10-01T13:49:05.990Z,34.47
2018-10-01T13:51:35.857Z,34.17
2018-10-01T13:54:05.454Z,33.71
2018-10-01T13:56:35.006Z,33.79
2018-10-01T13:59:04.832Z,34.09
2018-10-01T14:01:34.752Z,34.82
2018-10-01T14:04:04.267Z,34.58
2018-10-01T14:06:33.949Z,34.21
2018-10-01T14:09:03.773Z,34.57
2018-10-01T14:11:33.423Z,34.23
2018-10-01T14:14:03.110Z,34.39
2018-10-01T14:16:32.790Z,34.82
2018-10-01T14:19:02.607Z,35.26
2018-10-01T14:21:32.299Z,34.57
2018-10-01T14:24:02.100Z,34.62
2018-10-01T14:26:31.713Z,34.83
2018-10-01T14:29:01.788Z,35.03
2018-10-01T14:31:31.330Z,34.75
2018-10-01T14:34:00.953Z,34.62
2018-10-01T14:36:30.596Z,34.96
2018-10-01T14:39:00.318Z,35.18
2018-10-01T14:41:29.976Z,34.84
2018-10-01T14:44:00.206Z,35.49
2018-10-01T14:46:29.798Z,34.77
2018-10-01T14:48:59.889Z,35.29
2018-10-01T14:51:30.125Z,35.45
2018-10-01T14:53:59.969Z,35.34
2018-10-01T14:56:29.674Z,35.34
2018-10-01T14:58:59.207Z,35.46
2018-10-01T15:01:28.978Z,35.76
2018-10-01T15:03:58.595Z,35.97
2018-10-01T15:06:28.916Z,36.28
2018-10-01T15:08:58.710Z,36.81
2018-10-01T15:11:28.430Z,35.97
2018-10-01T15:13:58.173Z,36.54
2018-10-01T15:16:28.351Z,37.08
2018-10-01T15:18:58.028Z,36.83
2018-10-01T15:21:27.721Z,36.72
2018-10-01T15:23:57.499Z,37.02
2018-10-01T15:26:27.262Z,36.51
2018-10-01T15:28:57.230Z,37.47
2018-10-01T15:31:27.206Z,37.51
2018-10-01T15:33:56.918Z,37.69
2018-10-01T15:36:26.845Z,38.44
2018-10-01T15:38:57.583Z,39.17
2018-10-01T15:41:27.403Z,39.33
2018-10-01T15:43:57.045Z,39.04
2018-10-01T15:46:26.705Z,39.66
2018-10-01T15:48:56.411Z,39.91
2018-10-01T15:51:26.057Z,40.71
2018-10-01T15:53:56.141Z,41.16
2018-10-01T15:56:25.692Z,41.68
2018-10-01T15:58:55.386Z,42.19
2018-10-01T16:01:25.197Z,41.91
2018-10-01T16:03:54.989Z,42.90
2018-10-01T16:06:24.547Z,43.19
2018-10-01T16:08:54.266Z,43.57
2018-10-01T16:11:23.938Z,43.65
2018-10-01T16:13:53.817Z,43.61
2018-10-01T16:16:23.488Z,43.71
2018-10-01T16:18:53.181Z,44.48
2018-10-01T16:21:23.453Z,44.89
2018-10-01T16:23:53.245Z,45.29
2018-10-01T16:26:23.346Z,45.04
2018-10-01T16:28:53.183Z,45.41
2018-10-01T16:31:23.032Z,45.89
2018-10-01T16:33:52.715Z,46.13
2018-10-01T16:36:22.350Z,46.42
2018-10-01T16:38:52.130Z,46.40
2018-10-01T16:41:21.835Z,46.50
2018-10-01T16:43:51.504Z,46.99
2018-10-01T16:46:21.179Z,46.75
2018-10-01T16:48:50.914Z,46.96
2018-10-01T16:51:21.700Z,47.23
2018-10-01T16:53:51.413Z,47.38
2018-10-01T16:56:21.223Z,47.67
2018-10-01T16:58:50.737Z,47.86
2018-10-01T17:01:20.221Z,47.94
2018-10-01T17:03:49.902Z,47.80
2018-10-01T17:06:19.840Z,48.35
2018-10-01T17:08:49.442Z,49.14
2018-10-01T17:11:19.093Z,49.27
2018-10-01T17:13:48.911Z,48.76
2018-10-01T17:16:18.527Z,49.21
2018-10-01T17:18:48.813Z,48.83
2018-10-01T17:21:18.365Z,48.78
2018-10-01T17:23:48.069Z,49.33
2018-10-01T17:26:17.608Z,49.08
2018-10-01T17:28:47.363Z,49.30
2018-10-01T17:31:17.124Z,49.93
2018-10-01T17:33:46.858Z,50.12
2018-10-01T17:36:16.415Z,50.01
2018-10-01T17:38:46.047Z,50.42
2018-10-01T17:41:15.826Z,50.68
2018-10-01T17:43:46.343Z,51.22
2018-10-01T17:46:15.991Z,51.13
2018-10-01T17:48:45.555Z,51.27
2018-10-01T17:51:15.395Z,51.68
2018-10-01T17:53:45.068Z,51.88
2018-10-01T17:56:14.839Z,52.71
2018-10-01T17:58:44.637Z,52.38
2018-10-01T18:01:14.453Z,52.29
2018-10-01T18:03:44.212Z,52.68
2018-10-01T18:06:13.909Z,52.93
2018-10-01T18:08:43.662Z,53.48
2018-10-01T18:11:13.389Z,53.58
2018-10-01T18:13:43.241Z,53.85
2018-10-01T18:16:12.973Z,54.11
2018-10-01T18:18:42.501Z,54.14
2018-10-01T18:21:13.163Z,54.21
2018-10-01T18:23:42.615Z,54.10
2018-10-01T18:26:12.749Z,53.77
2018-10-01T18:28:42.480Z,53.46
2018-10-01T18:31:12.186Z,53.62
2018-10-01T18:33:41.820Z,53.88
2018-10-01T18:36:11.621Z,53.92
2018-10-01T18:38:41.352Z,53.96
2018-10-01T18:41:11.857Z,53.75
2018-10-01T18:43:41.504Z,53.65
2018-10-01T18:46:11.237Z,53.76
2018-10-01T18:48:40.795Z,53.56
2018-10-01T18:51:10.469Z,54.21
2018-10-01T18:53:40.304Z,54.49
2018-10-01T18:56:10.924Z,54.62
2018-10-01T18:58:40.717Z,54.07
2018-10-01T19:01:10.313Z,54.74
2018-10-01T19:03:40.170Z,54.76
2018-10-01T19:06:09.798Z,55.26
2018-10-01T19:08:39.491Z,55.10
2018-10-01T19:11:09.712Z,55.49
2018-10-01T19:13:39.214Z,55.83
2018-10-01T19:16:08.989Z,56.40
2018-10-01T19:18:38.717Z,56.42
2018-10-01T19:21:08.665Z,56.74
2018-10-01T19:23:38.379Z,57.19
2018-10-01T19:26:08.251Z,57.17
2018-10-01T19:28:37.832Z,57.66
2018-10-01T19:31:08.205Z,57.30
2018-10-01T19:33:37.970Z,57.68
2018-10-01T19:36:07.805Z,58.01
2018-10-01T19:38:37.646Z,58.03
2018-10-01T19:41:07.392Z,57.70
2018-10-01T19:43:37.365Z,58.55
2018-10-01T19:46:06.994Z,58.62
2018-10-01T19:48:36.841Z,59.00
2018-10-01T19:51:06.581Z,59.29
2018-10-01T19:53:36.681Z,59.32
2018-10-01T19:56:06.338Z,60.24
2018-10-01T19:58:36.413Z,61.10
2018-10-01T20:01:06.127Z,61.60
2018-10-01T20:03:35.708Z,61.47
2018-10-01T20:06:05.842Z,62.10
2018-10-01T20:08:35.653Z,62.46
2018-10-01T20:11:05.346Z,62.97
2018-10-01T20:13:35.100Z,63.00
2018-10-01T20:16:04.699Z,62.99
2018-10-01T20:18:34.179Z,63.40
2018-10-01T20:21:04.023Z,62.94
2018-10-01T20:23:33.897Z,62.73
2018-10-01T20:26:03.560Z,61.74
2018-10-01T20:28:33.386Z,62.21
2018-10-01T20:31:03.027Z,61.57
2018-10-01T20:33:32.722Z,61.08
2018-10-01T20:36:02.574Z,61.43
2018-10-01T20:38:32.295Z,61.46
2018-10-01T20:41:02.044Z,61.20
2018-10-01T20:43:31.673Z,60.97
2018-10-01T20:46:01.455Z,60.16
2018-10-01T20:48:30.969Z,59.31
2018-10-01T20:51:00.623Z,58.66
2018-10-01T20:53:30.880Z,58.71
2018-10-01T20:56:00.509Z,57.88
2018-10-01T20:58:30.173Z,56.65
2018-10-01T21:00:59.835Z,56.66
2018-10-01T21:03:29.468Z,56.96
2018-10-01T21:05:59.053Z,56.61
2018-10-01T21:08:28.763Z,56.40
2018-10-01T21:10:58.479Z,56.29
2018-10-01T21:13:28.194Z,56.42
2018-10-01T21:15:57.868Z,56.71
2018-10-01T21:18:27.623Z,57.46
2018-10-01T21:20:57.743Z,58.13
2018-10-01T21:23:27.221Z,59.64
2018-10-01T21:25:56.865Z,61.04
2018-10-01T21:28:26.963Z,62.22
2018-10-01T21:30:56.615Z,62.42
2018-10-01T21:33:26.985Z,62.50
2018-10-01T21:35:57.437Z,61.91
2018-10-01T21:38:27.025Z,62.20
2018-10-01T21:40:56.594Z,61.97
2018-10-01T21:43:26.234Z,62.37
2018-10-01T21:45:55.951Z,62.11
2018-10-01T21:48:25.475Z,61.86
2018-10-01T21:50:55.390Z,63.18
2018-10-01T21:53:24.923Z,64.19
2018-10-01T21:55:54.486Z,64.49
2018-10-01T21:58:24.349Z,62.75
2018-10-01T22:00:59.040Z,64.29
2018-10-01T22:03:28.630Z,64.12
2018-10-01T22:05:58.290Z,64.54
2018-10-01T22:08:28.133Z,64.75
2018-10-01T22:10:58.898Z,64.61
2018-10-01T22:13:28.616Z,62.79
2018-10-01T22:15:59.208Z,63.58
2018-10-01T22:18:29.841Z,64.23
2018-10-01T22:20:59.303Z,64.92
2018-10-01T22:23:29.137Z,64.97
2018-10-01T22:25:58.902Z,64.64
2018-10-01T22:28:28.625Z,65.06
2018-10-01T22:30:58.432Z,64.85
2018-10-01T22:33:28.686Z,64.92
2018-10-01T22:35:58.326Z,65.31
2018-10-01T22:38:28.030Z,65.26
2018-10-01T22:40:57.548Z,65.33
2018-10-01T22:43:27.307Z,65.60
2018-10-01T22:45:57.090Z,66.06
2018-10-01T22:48:26.713Z,66.22
2018-10-01T22:50:56.692Z,66.15
2018-10-01T22:53:26.364Z,66.02
2018-10-01T22:55:56.086Z,66.56
2018-10-01T22:58:25.579Z,66.77
2018-10-01T23:00:55.109Z,66.38
2018-10-01T23:03:24.622Z,67.06
2018-10-01T23:05:54.224Z,67.32
2018-10-01T23:08:23.973Z,68.70
2018-10-01T23:10:53.688Z,69.23
2018-10-01T23:13:23.207Z,69.80
2018-10-01T23:15:52.869Z,69.88
2018-10-01T23:18:22.435Z,70.00
2018-10-01T23:20:52.062Z,70.22
2018-10-01T23:23:21.693Z,69.74
2018-10-01T23:25:51.365Z,69.82
2018-10-01T23:28:21.048Z,70.11
2018-10-01T23:30:50.713Z,70.03
2018-10-01T23:33:21.000Z,70.13
2018-10-01T23:35:50.738Z,70.66
2018-10-01T23:38:20.448Z,70.64
2018-10-01T23:40:50.241Z,69.86
2018-10-01T23:43:19.973Z,70.00
2018-10-01T23:45:49.766Z,70.13
2018-10-01T23:48:20.216Z,69.17
2018-10-01T23:50:50.018Z,68.68
2018-10-01T23:53:19.557Z,67.71
2018-10-01T23:55:49.337Z,67.39
2018-10-01T23:58:18.976Z,68.06
